Time;durP1;ratioP1;P1;durP2;ratioP2;P2;SDS_P1;SDS_P2;PMS_P1;PMS_P2;Temp;Humidity;BMP_temperature;BMP_pressure;BME280_temperature;BME280_humidity;BME280_pressure;Samples;Min_cycle;Max_cycle;Signal;HPM_P1;HPM_P2
2021/08/03 00:02:25;;;;;;;2.28;1.48;;;;;;;;;;4919081;29;20131;-65
2021/08/03 00:04:55;;;;;;;3.10;1.60;;;;;;;;;;4918633;29;20054;-65
2021/08/03 00:07:22;;;;;;;1.75;1.45;;;;;;;;;;4933423;29;20123;-65
2021/08/03 00:09:49;;;;;;;4.43;1.27;;;;;;;;;;4917880;29;20148;-65
2021/08/03 00:12:17;;;;;;;2.17;1.70;;;;;;;;;;4918442;29;20048;-65
2021/08/03 00:14:46;;;;;;;6.35;2.70;;;;;;;;;;4918777;29;20087;-65
2021/08/03 00:17:15;;;;;;;2.13;1.45;;;;;;;;;;4918667;29;20052;-65
2021/08/03 00:19:42;;;;;;;2.50;1.50;;;;;;;;;;4918851;29;20478;-65
2021/08/03 00:22:08;;;;;;;3.53;1.30;;;;;;;;;;4918614;29;20075;-65
2021/08/03 00:24:36;;;;;;;2.60;1.58;;;;;;;;;;4918327;29;20083;-65
2021/08/03 00:27:04;;;;;;;1.80;1.40;;;;;;;;;;4918381;29;20079;-65
2021/08/03 00:29:30;;;;;;;1.50;1.33;;;;;;;;;;4918686;29;20083;-65
2021/08/03 00:31:57;;;;;;;2.38;1.50;;;;;;;;;;4901811;29;20141;-65
2021/08/03 00:34:24;;;;;;;1.88;1.60;;;;;;;;;;4917208;29;20070;-65
2021/08/03 00:36:50;;;;;;;1.92;1.65;;;;;;;;;;4917247;29;20083;-65
2021/08/03 00:39:17;;;;;;;1.73;1.58;;;;;;;;;;4918397;29;20595;-65
2021/08/03 00:41:55;;;;;;;3.75;1.73;;;;;;;;;;4918325;29;20091;-65
2021/08/03 00:44:38;;;;;;;3.78;2.53;;;;;;;;;;4916925;29;20479;-65
2021/08/03 00:47:04;;;;;;;3.58;2.10;;;;;;;;;;4918190;29;20143;-65
2021/08/03 00:49:31;;;;;;;1.55;1.35;;;;;;;;;;4917108;29;20080;-65
2021/08/03 00:51:58;;;;;;;3.55;1.50;;;;;;;;;;4918105;29;20079;-65
2021/08/03 00:54:24;;;;;;;2.42;2.15;;;;;;;;;;4917967;29;20519;-65
2021/08/03 00:56:51;;;;;;;5.00;2.10;;;;;;;;;;4917885;29;20083;-65
2021/08/03 00:59:17;;;;;;;2.03;1.67;;;;;;;;;;4918087;29;20075;-65
2021/08/03 01:01:44;;;;;;;2.95;2.38;;;;;;;;;;4918026;29;20526;-65
2021/08/03 01:04:11;;;;;;;3.63;1.73;;;;;;;;;;4916528;29;20522;-65
2021/08/03 01:06:41;;;;;;;2.33;1.63;;;;;;;;;;4916829;29;20140;-65
2021/08/03 01:09:39;;;;;;;4.18;1.75;;;;;;;;;;4916165;29;20346;-65
2021/08/03 01:12:19;;;;;;;2.28;1.50;;;;;;;;;;4916419;29;20052;-65
2021/08/03 01:15:27;;;;;;;2.00;1.60;;;;;;;;;;4916796;29;20080;-65
2021/08/03 01:17:54;;;;;;;2.30;1.60;;;;;;;;;;4877792;29;20088;-65
2021/08/03 01:20:31;;;;;;;2.95;1.67;;;;;;;;;;4877877;29;20091;-65
2021/08/03 01:23:26;;;;;;;2.10;1.67;;;;;;;;;;4898667;29;20159;-64
2021/08/03 01:26:11;;;;;;;5.03;2.00;;;;;;;;;;4916271;29;20126;-64
2021/08/03 01:28:40;;;;;;;2.47;1.67;;;;;;;;;;4917526;29;20107;-65
2021/08/03 01:31:16;;;;;;;4.15;1.70;;;;;;;;;;4900830;29;20086;-65
2021/08/03 01:33:46;;;;;;;2.83;1.60;;;;;;;;;;4916223;29;20062;-65
2021/08/03 01:36:12;;;;;;;2.10;1.35;;;;;;;;;;4916127;29;20082;-65
2021/08/03 01:38:39;;;;;;;3.97;1.50;;;;;;;;;;4916114;29;20140;-65
2021/08/03 01:41:08;;;;;;;2.20;1.25;;;;;;;;;;4915941;29;20083;-65
2021/08/03 01:43:34;;;;;;;3.20;1.65;;;;;;;;;;4915827;29;20516;-65
2021/08/03 01:46:02;;;;;;;2.38;1.50;;;;;;;;;;4915862;29;20071;-65
2021/08/03 01:48:28;;;;;;;3.30;1.83;;;;;;;;;;4916095;29;20059;-64
2021/08/03 01:50:55;;;;;;;1.83;1.67;;;;;;;;;;4915899;29;20138;-64
2021/08/03 01:53:23;;;;;;;3.33;1.60;;;;;;;;;;4916949;29;20132;-64
2021/08/03 01:55:54;;;;;;;4.13;1.65;;;;;;;;;;4916242;29;20090;-65
2021/08/03 01:58:21;;;;;;;1.92;1.55;;;;;;;;;;4916253;29;20143;-65
2021/08/03 02:00:48;;;;;;;3.20;2.08;;;;;;;;;;4915868;29;20095;-65
2021/08/03 02:03:15;;;;;;;3.65;2.00;;;;;;;;;;4916686;29;20048;-65
2021/08/03 02:05:43;;;;;;;1.90;1.75;;;;;;;;;;4915567;29;20052;-65
2021/08/03 02:08:10;;;;;;;3.63;2.05;;;;;;;;;;4915647;29;20492;-65
2021/08/03 02:10:38;;;;;;;1.92;1.58;;;;;;;;;;4915548;29;20080;-65
2021/08/03 02:13:05;;;;;;;3.13;1.90;;;;;;;;;;4915323;29;20530;-64
2021/08/03 02:15:32;;;;;;;2.22;1.80;;;;;;;;;;4915409;29;20139;-64
2021/08/03 02:17:59;;;;;;;2.90;1.83;;;;;;;;;;4915424;29;20056;-64
2021/08/03 02:20:25;;;;;;;3.92;1.70;;;;;;;;;;4916431;29;20487;-66
2021/08/03 02:22:52;;;;;;;2.10;1.90;;;;;;;;;;4916245;29;20087;-65
2021/08/03 02:25:18;;;;;;;3.53;2.50;;;;;;;;;;4916232;29;20090;-65
2021/08/03 02:27:45;;;;;;;4.18;1.90;;;;;;;;;;4916448;29;20575;-65
2021/08/03 02:30:12;;;;;;;1.83;1.50;;;;;;;;;;4916321;29;20458;-65
2021/08/03 02:32:50;;;;;;;3.08;1.90;;;;;;;;;;4916323;29;20500;-66
2021/08/03 02:35:19;;;;;;;5.10;2.00;;;;;;;;;;4915192;29;20087;-66
2021/08/03 02:37:50;;;;;;;3.30;2.08;;;;;;;;;;4915331;29;20284;-66
2021/08/03 02:40:16;;;;;;;2.13;1.73;;;;;;;;;;4915066;29;20423;-65
2021/08/03 02:42:43;;;;;;;5.15;2.13;;;;;;;;;;4914946;29;20087;-65
2021/08/03 02:45:12;;;;;;;2.67;1.90;;;;;;;;;;4914807;29;20131;-65
2021/08/03 02:47:50;;;;;;;3.03;1.90;;;;;;;;;;4916153;29;20567;-65
2021/08/03 02:50:18;;;;;;;2.30;1.65;;;;;;;;;;4915170;29;20103;-65
2021/08/03 02:52:46;;;;;;;2.72;2.05;;;;;;;;;;4914781;29;20095;-66
2021/08/03 02:55:24;;;;;;;2.20;1.98;;;;;;;;;;4914776;29;20079;-66
2021/08/03 02:58:14;;;;;;;2.42;1.83;;;;;;;;;;4915990;29;20590;-66
2021/08/03 03:00:40;;;;;;;2.35;1.75;;;;;;;;;;4914812;29;20504;-66
2021/08/03 03:03:09;;;;;;;4.68;2.05;;;;;;;;;;4914465;29;20519;-66
2021/08/03 03:05:36;;;;;;;3.40;2.05;;;;;;;;;;4935478;23;20055;-70
2021/08/03 03:08:06;;;;;;;2.78;1.80;;;;;;;;;;4914649;29;20196;-69
2021/08/03 03:10:33;;;;;;;3.33;1.67;;;;;;;;;;4914552;29;20098;-69
2021/08/03 03:13:03;;;;;;;3.38;1.50;;;;;;;;;;4898952;29;20455;-70
2021/08/03 03:15:29;;;;;;;2.90;1.60;;;;;;;;;;4915649;29;20491;-70
2021/08/03 03:17:56;;;;;;;3.40;2.25;;;;;;;;;;4898883;29;20092;-70
2021/08/03 03:20:22;;;;;;;2.45;1.45;;;;;;;;;;4899036;29;20091;-70
2021/08/03 03:22:49;;;;;;;3.65;1.80;;;;;;;;;;4899711;29;20082;-70
2021/08/03 03:25:24;;;;;;;3.05;1.85;;;;;;;;;;4880073;29;20504;-70
2021/08/03 03:27:54;;;;;;;2.13;1.83;;;;;;;;;;4880569;29;20099;-70
2021/08/03 03:30:21;;;;;;;2.50;1.80;;;;;;;;;;4880465;29;20094;-69
2021/08/03 03:32:48;;;;;;;2.25;1.88;;;;;;;;;;4881679;29;20079;-70
2021/08/03 03:35:15;;;;;;;4.13;1.52;;;;;;;;;;4886339;29;20143;-70
2021/08/03 03:37:43;;;;;;;2.58;1.50;;;;;;;;;;4886331;29;20092;-69
2021/08/03 03:40:14;;;;;;;3.78;1.85;;;;;;;;;;4886280;29;20056;-70
2021/08/03 03:42:40;;;;;;;2.25;1.73;;;;;;;;;;4903044;29;20102;-70
2021/08/03 03:45:08;;;;;;;1.73;1.33;;;;;;;;;;4886119;29;20057;-69
2021/08/03 03:47:37;;;;;;;4.18;1.77;;;;;;;;;;4901953;29;20485;-69
2021/08/03 03:50:20;;;;;;;2.30;1.75;;;;;;;;;;4901803;29;20193;-69
2021/08/03 03:52:52;;;;;;;2.80;1.70;;;;;;;;;;4886291;29;20091;-69
2021/08/03 03:55:21;;;;;;;4.70;1.40;;;;;;;;;;4886516;29;20088;-70
2021/08/03 03:57:47;;;;;;;4.30;1.67;;;;;;;;;;4901668;29;20048;-70
2021/08/03 04:00:14;;;;;;;2.58;1.67;;;;;;;;;;4902722;29;20103;-69
2021/08/03 04:02:41;;;;;;;3.83;2.03;;;;;;;;;;4901579;29;20087;-70
2021/08/03 04:05:11;;;;;;;2.75;1.55;;;;;;;;;;4891468;29;20056;-69
2021/08/03 04:07:37;;;;;;;1.75;1.58;;;;;;;;;;4920094;29;20084;-70
2021/08/03 04:10:08;;;;;;;1.70;1.60;;;;;;;;;;4920356;29;20127;-70
2021/08/03 04:12:35;;;;;;;4.32;1.40;;;;;;;;;;4919146;29;20100;-70
2021/08/03 04:15:03;;;;;;;5.20;1.80;;;;;;;;;;4911347;29;20107;-69
2021/08/03 04:17:30;;;;;;;3.72;2.00;;;;;;;;;;4902604;29;20497;-70
2021/08/03 04:19:56;;;;;;;2.75;2.20;;;;;;;;;;4902404;29;20531;-69
2021/08/03 04:22:23;;;;;;;2.78;2.00;;;;;;;;;;4903087;29;20135;-69
2021/08/03 04:24:49;;;;;;;4.50;2.03;;;;;;;;;;4917616;29;20083;-70
2021/08/03 04:27:17;;;;;;;3.53;1.50;;;;;;;;;;4917962;29;20131;-70
2021/08/03 04:29:44;;;;;;;2.15;1.80;;;;;;;;;;4909665;29;20063;-70
2021/08/03 04:32:11;;;;;;;2.17;1.83;;;;;;;;;;4913690;29;20092;-70
2021/08/03 04:34:37;;;;;;;5.28;2.20;;;;;;;;;;4911393;29;20088;-70
2021/08/03 04:37:04;;;;;;;2.83;2.15;;;;;;;;;;4910279;29;20044;-70
2021/08/03 04:39:30;;;;;;;4.05;1.77;;;;;;;;;;4911748;29;20092;-69
2021/08/03 04:41:57;;;;;;;3.28;2.47;;;;;;;;;;4912078;29;20140;-70
2021/08/03 04:44:23;;;;;;;2.58;2.03;;;;;;;;;;4909212;29;20083;-70
2021/08/03 04:46:50;;;;;;;4.15;2.13;;;;;;;;;;4918302;29;20506;-70
2021/08/03 04:49:17;;;;;;;6.30;2.30;;;;;;;;;;4915405;29;20228;-70
2021/08/03 04:51:43;;;;;;;2.78;2.10;;;;;;;;;;4907923;29;20102;-70
2021/08/03 04:54:10;;;;;;;4.68;2.20;;;;;;;;;;4909191;29;20537;-70
2021/08/03 04:56:36;;;;;;;7.22;2.22;;;;;;;;;;4907909;29;20436;-69
2021/08/03 04:59:03;;;;;;;2.47;2.05;;;;;;;;;;4907236;29;20140;-70
2021/08/03 05:01:31;;;;;;;3.22;1.90;;;;;;;;;;4906920;29;20087;-70
2021/08/03 05:04:00;;;;;;;2.83;1.80;;;;;;;;;;4908955;29;20090;-70
2021/08/03 05:06:26;;;;;;;1.88;1.73;;;;;;;;;;4908941;29;20131;-70
2021/08/03 05:08:53;;;;;;;3.67;1.75;;;;;;;;;;4907334;29;20493;-70
2021/08/03 05:11:20;;;;;;;3.60;1.88;;;;;;;;;;4907193;29;20075;-70
2021/08/03 05:13:46;;;;;;;5.93;1.83;;;;;;;;;;4903873;29;20084;-70
2021/08/03 05:16:13;;;;;;;2.67;1.98;;;;;;;;;;4898909;29;20469;-70
2021/08/03 05:18:39;;;;;;;2.00;1.65;;;;;;;;;;4898751;29;20080;-70
2021/08/03 05:21:06;;;;;;;3.15;1.95;;;;;;;;;;4898959;29;20112;-70
2021/08/03 05:23:32;;;;;;;3.13;2.75;;;;;;;;;;4898851;29;20103;-70
2021/08/03 05:25:59;;;;;;;3.10;1.60;;;;;;;;;;4898762;29;20175;-70
2021/08/03 05:28:25;;;;;;;2.30;1.50;;;;;;;;;;4898602;29;20091;-72
2021/08/03 05:30:52;;;;;;;2.78;1.50;;;;;;;;;;4898532;29;20159;-69
2021/08/03 05:33:18;;;;;;;2.38;1.65;;;;;;;;;;4898622;29;20080;-69
2021/08/03 05:35:45;;;;;;;2.05;1.48;;;;;;;;;;4898596;29;20057;-69
2021/08/03 05:38:11;;;;;;;2.65;1.58;;;;;;;;;;4898478;29;20512;-69
2021/08/03 05:40:38;;;;;;;2.55;1.67;;;;;;;;;;4913922;29;20131;-69
2021/08/03 05:43:05;;;;;;;2.08;1.80;;;;;;;;;;4917113;29;20098;-68
2021/08/03 05:45:31;;;;;;;2.75;1.90;;;;;;;;;;4917227;29;20087;-69
2021/08/03 05:47:58;;;;;;;4.43;1.88;;;;;;;;;;4917024;29;20056;-69
2021/08/03 05:50:24;;;;;;;2.47;1.65;;;;;;;;;;4917224;29;20083;-69
2021/08/03 05:52:51;;;;;;;4.38;1.42;;;;;;;;;;4916796;29;20090;-68
2021/08/03 05:55:17;;;;;;;6.00;2.00;;;;;;;;;;4916816;29;20083;-69
2021/08/03 05:57:47;;;;;;;3.40;1.50;;;;;;;;;;4916941;29;20111;-68
2021/08/03 06:00:14;;;;;;;3.55;1.70;;;;;;;;;;4916874;29;20127;-69
2021/08/03 06:02:40;;;;;;;4.15;1.85;;;;;;;;;;4916844;29;20092;-69
2021/08/03 06:05:09;;;;;;;3.78;1.40;;;;;;;;;;4916691;29;20087;-69
2021/08/03 06:07:44;;;;;;;2.65;1.45;;;;;;;;;;4916813;29;20044;-69
2021/08/03 06:10:14;;;;;;;6.03;1.60;;;;;;;;;;4916724;29;20124;-70
2021/08/03 06:12:46;;;;;;;6.57;1.70;;;;;;;;;;4916785;29;20180;-68
2021/08/03 06:15:13;;;;;;;9.00;1.60;;;;;;;;;;4915482;29;20080;-69
2021/08/03 06:17:43;;;;;;;4.75;1.80;;;;;;;;;;4916951;29;20076;-68
2021/08/03 06:20:10;;;;;;;4.53;1.40;;;;;;;;;;4912343;29;20088;-68
2021/08/03 06:22:37;;;;;;;6.60;1.67;;;;;;;;;;4896374;29;20217;-69
2021/08/03 06:25:13;;;;;;;1.65;1.35;;;;;;;;;;4897345;29;20063;-69
2021/08/03 06:27:40;;;;;;;5.38;2.55;;;;;;;;;;4897704;29;20088;-69
2021/08/03 06:30:07;;;;;;;2.13;1.67;;;;;;;;;;4897374;29;20095;-69
2021/08/03 06:32:34;;;;;;;1.58;1.33;;;;;;;;;;4903092;29;20052;-69
2021/08/03 06:35:00;;;;;;;1.95;1.63;;;;;;;;;;4916253;29;20131;-69
2021/08/03 06:37:27;;;;;;;1.58;1.00;;;;;;;;;;4916686;29;20080;-69
2021/08/03 06:39:53;;;;;;;4.32;1.38;;;;;;;;;;4916389;29;20086;-69
2021/08/03 06:42:40;;;;;;;2.78;1.40;;;;;;;;;;4916061;29;20508;-69
2021/08/03 06:45:13;;;;;;;2.70;1.52;;;;;;;;;;4916129;29;20052;-69
2021/08/03 06:47:56;;;;;;;3.92;1.80;;;;;;;;;;4903998;29;20482;-70
2021/08/03 06:50:25;;;;;;;2.35;1.17;;;;;;;;;;4896323;29;20417;-69
2021/08/03 06:52:52;;;;;;;3.30;1.90;;;;;;;;;;4897284;29;20094;-69
2021/08/03 06:55:20;;;;;;;2.35;1.30;;;;;;;;;;4896013;29;20084;-69
2021/08/03 06:57:51;;;;;;;7.40;1.23;;;;;;;;;;4880903;29;20508;-69
2021/08/03 07:00:19;;;;;;;3.22;1.35;;;;;;;;;;4896169;29;20056;-69
2021/08/03 07:02:48;;;;;;;2.05;1.30;;;;;;;;;;4893682;29;20511;-69
2021/08/03 07:05:18;;;;;;;2.65;1.27;;;;;;;;;;4893626;29;20099;-69
2021/08/03 07:07:45;;;;;;;3.28;1.38;;;;;;;;;;4893190;29;20084;-69
2021/08/03 07:10:13;;;;;;;2.17;0.90;;;;;;;;;;4894931;29;20093;-69
2021/08/03 07:12:44;;;;;;;1.40;1.10;;;;;;;;;;4894813;29;20116;-70
2021/08/03 07:15:12;;;;;;;1.90;0.97;;;;;;;;;;4905721;29;20048;-69
2021/08/03 07:17:42;;;;;;;0.73;0.73;;;;;;;;;;4913687;29;20563;-69
2021/08/03 07:20:10;;;;;;;3.45;1.40;;;;;;;;;;4912475;29;20087;-69
2021/08/03 07:22:38;;;;;;;2.30;1.17;;;;;;;;;;4913605;29;20307;-70
2021/08/03 07:25:06;;;;;;;1.08;0.98;;;;;;;;;;4913485;29;20456;-69
2021/08/03 07:27:33;;;;;;;3.28;1.33;;;;;;;;;;4913538;29;20519;-70
2021/08/03 07:29:59;;;;;;;4.07;1.00;;;;;;;;;;4897530;29;20088;-69
2021/08/03 07:32:29;;;;;;;1.10;0.98;;;;;;;;;;4894541;29;20056;-69
2021/08/03 07:34:55;;;;;;;1.05;0.90;;;;;;;;;;4894665;29;20084;-69
2021/08/03 07:37:22;;;;;;;2.38;1.05;;;;;;;;;;4894789;29;20092;-69
2021/08/03 07:39:48;;;;;;;1.50;1.02;;;;;;;;;;4894776;29;20131;-69
2021/08/03 07:42:15;;;;;;;4.82;1.10;;;;;;;;;;4894113;29;20099;-69
2021/08/03 07:44:43;;;;;;;2.78;1.10;;;;;;;;;;4910897;29;20083;-69
2021/08/03 07:47:09;;;;;;;5.18;2.03;;;;;;;;;;4913264;29;20052;-69
2021/08/03 07:49:36;;;;;;;1.35;0.98;;;;;;;;;;4912259;29;20189;-69
2021/08/03 07:52:03;;;;;;;2.97;1.08;;;;;;;;;;4913332;29;20079;-70
2021/08/03 07:54:30;;;;;;;2.60;1.10;;;;;;;;;;4911589;29;20134;-69
2021/08/03 07:56:56;;;;;;;1.55;1.02;;;;;;;;;;4912761;29;20083;-69
2021/08/03 07:59:23;;;;;;;1.38;1.10;;;;;;;;;;4913242;29;20096;-70
2021/08/03 08:01:49;;;;;;;2.70;1.23;;;;;;;;;;4913370;29;20206;-69
2021/08/03 08:04:16;;;;;;;2.88;1.20;;;;;;;;;;4912955;29;20056;-68
2021/08/03 08:06:43;;;;;;;2.45;1.15;;;;;;;;;;4913055;29;20052;-69
2021/08/03 08:09:17;;;;;;;2.85;1.10;;;;;;;;;;4912882;29;20434;-69
2021/08/03 08:11:43;;;;;;;2.70;1.00;;;;;;;;;;4913263;29;20052;-70
2021/08/03 08:14:10;;;;;;;3.83;1.10;;;;;;;;;;4900211;29;20087;-70
2021/08/03 08:16:37;;;;;;;3.88;2.05;;;;;;;;;;4907868;29;20048;-68
2021/08/03 08:19:04;;;;;;;2.92;1.58;;;;;;;;;;4904219;29;20080;-69
2021/08/03 08:21:33;;;;;;;1.65;1.25;;;;;;;;;;4904127;29;20543;-69
2021/08/03 08:24:01;;;;;;;1.10;0.80;;;;;;;;;;4904403;29;20045;-69
2021/08/03 08:26:27;;;;;;;2.45;1.23;;;;;;;;;;4904370;29;20051;-69
2021/08/03 08:28:54;;;;;;;2.05;1.40;;;;;;;;;;4906671;29;20549;-69
2021/08/03 08:31:21;;;;;;;4.72;1.10;;;;;;;;;;4906960;29;20084;-68
2021/08/03 08:33:47;;;;;;;2.45;1.25;;;;;;;;;;4909814;29;20404;-69
2021/08/03 08:36:14;;;;;;;2.33;1.08;;;;;;;;;;4905264;29;20091;-68
2021/08/03 08:38:40;;;;;;;2.50;0.98;;;;;;;;;;4910093;29;20041;-69
2021/08/03 08:41:07;;;;;;;1.42;0.98;;;;;;;;;;4904417;29;20092;-69
2021/08/03 08:43:34;;;;;;;2.33;1.17;;;;;;;;;;4906367;29;20048;-70
2021/08/03 08:46:00;;;;;;;1.13;0.90;;;;;;;;;;4904833;29;20488;-69
2021/08/03 08:48:27;;;;;;;3.75;1.15;;;;;;;;;;4905702;29;20044;-69
2021/08/03 08:50:54;;;;;;;2.20;1.10;;;;;;;;;;4889645;29;21178;-71
2021/08/03 08:53:25;;;;;;;3.70;1.20;;;;;;;;;;4904432;29;20109;-73
2021/08/03 08:55:52;;;;;;;1.88;1.15;;;;;;;;;;4904979;29;20108;-71
2021/08/03 08:58:19;;;;;;;1.45;0.93;;;;;;;;;;4903484;29;20113;-72
2021/08/03 09:00:45;;;;;;;1.88;1.48;;;;;;;;;;4905639;29;20080;-71
2021/08/03 09:03:12;;;;;;;6.38;1.30;;;;;;;;;;4903367;29;20150;-73
2021/08/03 09:05:39;;;;;;;2.50;1.10;;;;;;;;;;4910289;23;20131;-72
2021/08/03 09:08:08;;;;;;;1.70;1.25;;;;;;;;;;4896813;29;20057;-72
2021/08/03 09:10:44;;;;;;;2.78;1.20;;;;;;;;;;4897930;29;20095;-70
2021/08/03 09:13:17;;;;;;;1.55;1.20;;;;;;;;;;4907698;29;20052;-70
2021/08/03 09:15:46;;;;;;;2.80;1.40;;;;;;;;;;4896228;29;20056;-69
2021/08/03 09:18:20;;;;;;;3.88;1.25;;;;;;;;;;4897266;29;20057;-71
2021/08/03 09:20:47;;;;;;;1.83;1.00;;;;;;;;;;4896300;29;20057;-68
2021/08/03 09:23:14;;;;;;;5.13;1.27;;;;;;;;;;4895963;29;20060;-66
2021/08/03 09:25:56;;;;;;;1.40;1.15;;;;;;;;;;4897313;29;20053;-66
2021/08/03 09:28:23;;;;;;;2.88;1.27;;;;;;;;;;4894170;29;20088;-67
2021/08/03 09:30:50;;;;;;;1.45;0.90;;;;;;;;;;4895977;29;20116;-71
2021/08/03 09:33:26;;;;;;;1.20;0.93;;;;;;;;;;4898011;29;20091;-67
2021/08/03 09:35:54;;;;;;;4.50;1.10;;;;;;;;;;4892892;29;20091;-69
2021/08/03 09:38:21;;;;;;;1.33;1.00;;;;;;;;;;4897696;29;20560;-69
2021/08/03 09:40:48;;;;;;;3.03;0.95;;;;;;;;;;4897617;29;20076;-67
2021/08/03 09:43:16;;;;;;;3.03;1.20;;;;;;;;;;4897033;29;20209;-68
2021/08/03 09:45:42;;;;;;;1.75;1.25;;;;;;;;;;4896028;29;20087;-66
2021/08/03 09:48:10;;;;;;;6.35;1.60;;;;;;;;;;4897219;29;20517;-69
2021/08/03 09:50:59;;;;;;;5.28;1.75;;;;;;;;;;4898839;29;20045;-70
2021/08/03 09:53:38;;;;;;;3.05;1.60;;;;;;;;;;4898015;29;20064;-70
2021/08/03 09:56:06;;;;;;;3.33;1.27;;;;;;;;;;4898137;29;20087;-69
2021/08/03 09:58:33;;;;;;;2.67;1.00;;;;;;;;;;4898106;29;20088;-70
2021/08/03 10:01:36;;;;;;;1.70;1.20;;;;;;;;;;4896351;29;20091;-65
2021/08/03 10:04:12;;;;;;;;;;;;;;;;;;4886765;29;20150;-72
2021/08/03 10:06:40;;;;;;;3.95;1.25;;;;;;;;;;4897085;29;19987;-69
2021/08/03 10:09:09;;;;;;;2.25;1.40;;;;;;;;;;4897222;29;20437;-69
2021/08/03 10:11:35;;;;;;;1.70;1.30;;;;;;;;;;4897387;29;20052;-71
2021/08/03 10:14:22;;;;;;;3.90;1.10;;;;;;;;;;4895926;29;20058;-69
2021/08/03 10:16:51;;;;;;;1.92;1.38;;;;;;;;;;4898027;29;20117;-68
2021/08/03 10:19:25;;;;;;;2.22;1.63;;;;;;;;;;4897087;29;20108;-66
2021/08/03 10:22:05;;;;;;;1.70;1.50;;;;;;;;;;4895648;29;20067;-70
2021/08/03 10:24:37;;;;;;;4.45;1.80;;;;;;;;;;4892940;29;20104;-71
2021/08/03 10:27:04;;;;;;;1.75;1.45;;;;;;;;;;4894288;29;20143;-69
2021/08/03 10:29:31;;;;;;;1.77;1.40;;;;;;;;;;4896368;29;20084;-73
2021/08/03 10:31:58;;;;;;;2.55;1.60;;;;;;;;;;4898588;29;20080;-69
2021/08/03 10:34:43;;;;;;;1.67;1.52;;;;;;;;;;4898396;29;20072;-72
2021/08/03 10:37:11;;;;;;;2.28;1.73;;;;;;;;;;4895458;29;20101;-69
2021/08/03 10:39:57;;;;;;;1.88;1.60;;;;;;;;;;4894760;29;20063;-72
2021/08/03 10:42:24;;;;;;;1.90;1.42;;;;;;;;;;4895451;29;20492;-68
2021/08/03 10:44:57;;;;;;;1.40;1.30;;;;;;;;;;4896697;29;20140;-70
2021/08/03 10:50:06;;;;;;;2.75;1.35;;;;;;;;;;4895813;29;20080;-66
2021/08/03 10:52:48;;;;;;;2.47;1.38;;;;;;;;;;4893104;29;20508;-65
2021/08/03 10:55:38;;;;;;;1.83;1.42;;;;;;;;;;4895149;29;20067;-65
2021/08/03 10:58:11;;;;;;;4.38;1.40;;;;;;;;;;4894655;29;20076;-67
2021/08/03 11:00:56;;;;;;;2.65;1.90;;;;;;;;;;4897987;29;20079;-66
2021/08/03 11:03:34;;;;;;;1.38;1.17;;;;;;;;;;4894416;29;20081;-66
2021/08/03 11:06:24;;;;;;;1.10;1.00;;;;;;;;;;4896258;29;20056;-66
2021/08/03 11:08:54;;;;;;;3.08;1.42;;;;;;;;;;4892568;29;20197;-66
2021/08/03 11:11:22;;;;;;;3.28;1.10;;;;;;;;;;4896271;29;20083;-66
2021/08/03 11:13:50;;;;;;;2.00;1.63;;;;;;;;;;4895759;29;20416;-66
2021/08/03 11:16:19;;;;;;;1.73;1.63;;;;;;;;;;4895576;29;20087;-66
2021/08/03 11:18:48;;;;;;;1.30;1.20;;;;;;;;;;4896425;29;20048;-66
2021/08/03 11:21:15;;;;;;;1.52;1.30;;;;;;;;;;4895786;29;20080;-67
2021/08/03 11:24:09;;;;;;;1.50;1.20;;;;;;;;;;4895589;29;20084;-66
2021/08/03 11:26:51;;;;;;;1.98;1.85;;;;;;;;;;4894480;29;20120;-67
2021/08/03 11:29:31;;;;;;;2.63;1.50;;;;;;;;;;4893100;29;20076;-67
2021/08/03 11:32:00;;;;;;;2.22;1.50;;;;;;;;;;4896300;29;20531;-67
2021/08/03 11:34:40;;;;;;;2.30;1.55;;;;;;;;;;4894262;29;20076;-67
2021/08/03 11:37:20;;;;;;;2.17;1.50;;;;;;;;;;4894691;29;20064;-68
2021/08/03 11:39:51;;;;;;;2.33;1.38;;;;;;;;;;4893744;29;20150;-67
2021/08/03 11:42:41;;;;;;;2.97;1.50;;;;;;;;;;4894690;29;20077;-67
2021/08/03 11:45:11;;;;;;;1.52;1.40;;;;;;;;;;4895341;29;20104;-67
2021/08/03 11:47:43;;;;;;;2.30;1.40;;;;;;;;;;4889233;29;20084;-67
2021/08/03 11:50:10;;;;;;;2.50;1.92;;;;;;;;;;4895711;29;20076;-67
2021/08/03 11:52:37;;;;;;;2.28;1.45;;;;;;;;;;4896263;29;20080;-67
2021/08/03 11:55:04;;;;;;;1.48;1.13;;;;;;;;;;4896053;29;20053;-67
2021/08/03 11:57:32;;;;;;;2.55;1.10;;;;;;;;;;4899568;29;20076;-67
2021/08/03 12:00:06;;;;;;;2.63;1.70;;;;;;;;;;4899614;29;20568;-67
2021/08/03 12:02:33;;;;;;;1.85;1.35;;;;;;;;;;4898193;29;20048;-67
2021/08/03 12:05:12;;;;;;;1.73;1.33;;;;;;;;;;4895968;29;20080;-67
2021/08/03 12:07:40;;;;;;;1.80;1.48;;;;;;;;;;4896801;29;20136;-67
2021/08/03 12:10:08;;;;;;;2.75;1.10;;;;;;;;;;4897913;29;20140;-67
2021/08/03 12:12:35;;;;;;;2.25;1.38;;;;;;;;;;4899753;29;20132;-67
2021/08/03 12:15:09;;;;;;;2.47;1.20;;;;;;;;;;4899423;29;20469;-67
2021/08/03 12:17:36;;;;;;;1.42;1.20;;;;;;;;;;4895815;29;20488;-67
2021/08/03 12:20:25;;;;;;;1.92;1.17;;;;;;;;;;4898935;29;20064;-67
2021/08/03 12:22:53;;;;;;;2.63;1.52;;;;;;;;;;4898699;29;20091;-67
2021/08/03 12:25:20;;;;;;;2.45;1.17;;;;;;;;;;4895222;29;20087;-67
2021/08/03 12:27:48;;;;;;;2.97;1.20;;;;;;;;;;4899240;29;20122;-67
2021/08/03 12:30:34;;;;;;;2.88;1.20;;;;;;;;;;4898876;29;20073;-67
2021/08/03 12:33:01;;;;;;;1.50;1.30;;;;;;;;;;4894823;29;20052;-67
2021/08/03 12:35:27;;;;;;;1.83;1.10;;;;;;;;;;4899025;29;20568;-67
2021/08/03 12:38:14;;;;;;;1.20;1.02;;;;;;;;;;4899105;29;20076;-67
2021/08/03 12:40:41;;;;;;;2.22;1.27;;;;;;;;;;4898954;29;20076;-67
2021/08/03 12:43:07;;;;;;;1.95;1.33;;;;;;;;;;4898987;29;20140;-67
2021/08/03 12:45:38;;;;;;;2.55;1.20;;;;;;;;;;4899023;29;20103;-67
2021/08/03 12:48:07;;;;;;;1.33;1.00;;;;;;;;;;4897508;29;20041;-67
2021/08/03 12:50:51;;;;;;;1.80;1.10;;;;;;;;;;4894760;29;20084;-74
2021/08/03 12:53:25;;;;;;;1.27;0.95;;;;;;;;;;4886690;29;20121;-73
2021/08/03 12:55:54;;;;;;;1.27;0.90;;;;;;;;;;4897301;29;20472;-73
2021/08/03 12:58:54;;;;;;;1.83;1.08;;;;;;;;;;4896770;29;20048;-67
2021/08/03 13:01:23;;;;;;;1.02;0.80;;;;;;;;;;4885641;29;20486;-67
2021/08/03 13:03:51;;;;;;;2.85;0.90;;;;;;;;;;4897250;29;20139;-67
2021/08/03 13:06:18;;;;;;;2.90;0.57;;;;;;;;;;4896419;29;20111;-68
2021/08/03 13:08:45;;;;;;;0.60;0.60;;;;;;;;;;4893951;29;20052;-74
2021/08/03 13:11:12;;;;;;;1.27;0.88;;;;;;;;;;4897538;29;20096;-73
2021/08/03 13:13:38;;;;;;;0.82;0.82;;;;;;;;;;4897004;29;20427;-73
2021/08/03 13:16:06;;;;;;;2.55;1.00;;;;;;;;;;4897562;29;20055;-74
2021/08/03 13:18:33;;;;;;;1.73;0.80;;;;;;;;;;4881136;29;20072;-75
2021/08/03 13:21:00;;;;;;;1.05;0.80;;;;;;;;;;4897956;29;20292;-72
2021/08/03 13:23:27;;;;;;;1.10;0.85;;;;;;;;;;4897400;29;20053;-74
2021/08/03 13:25:55;;;;;;;0.80;0.80;;;;;;;;;;4864060;29;20060;-73
2021/08/03 13:28:22;;;;;;;1.75;0.63;;;;;;;;;;4897736;29;20099;-71
2021/08/03 13:30:49;;;;;;;0.93;0.68;;;;;;;;;;4896166;29;20125;-65
2021/08/03 13:33:15;;;;;;;0.52;0.50;;;;;;;;;;4896989;29;20057;-70
2021/08/03 13:35:42;;;;;;;0.57;0.50;;;;;;;;;;4898064;29;20076;-71
2021/08/03 13:38:08;;;;;;;0.40;0.40;;;;;;;;;;4897497;29;20096;-74
2021/08/03 13:40:35;;;;;;;1.88;0.70;;;;;;;;;;4897667;29;20143;-72
2021/08/03 13:43:02;;;;;;;1.08;0.50;;;;;;;;;;4897067;29;20112;-68
2021/08/03 13:45:28;;;;;;;0.70;0.55;;;;;;;;;;4896364;29;20048;-68
2021/08/03 13:47:55;;;;;;;1.38;0.73;;;;;;;;;;4896947;29;20080;-71
2021/08/03 13:50:22;;;;;;;1.00;0.73;;;;;;;;;;4897612;29;20132;-72
2021/08/03 13:52:48;;;;;;;0.70;0.63;;;;;;;;;;4896688;29;20076;-73
2021/08/03 13:55:15;;;;;;;1.42;0.70;;;;;;;;;;4893614;29;20049;-73
2021/08/03 13:57:41;;;;;;;3.10;0.60;;;;;;;;;;4894629;29;20048;-78
2021/08/03 14:00:09;;;;;;;0.60;0.60;;;;;;;;;;4896516;29;20090;-74
2021/08/03 14:02:36;;;;;;;1.20;0.70;;;;;;;;;;4896211;29;20088;-77
2021/08/03 14:05:03;;;;;;;0.90;0.70;;;;;;;;;;4896241;29;20093;-65
2021/08/03 14:07:30;;;;;;;0.98;0.63;;;;;;;;;;4880382;29;20048;-77
2021/08/03 14:09:56;;;;;;;1.00;0.65;;;;;;;;;;4880447;29;20512;-73
2021/08/03 14:12:23;;;;;;;1.05;0.80;;;;;;;;;;4897043;29;20128;-72
2021/08/03 14:14:50;;;;;;;1.00;0.73;;;;;;;;;;4911405;29;20068;-72
2021/08/03 14:17:16;;;;;;;1.17;0.57;;;;;;;;;;4896912;29;20059;-70
2021/08/03 14:19:43;;;;;;;1.40;0.80;;;;;;;;;;4897734;29;20084;-65
2021/08/03 14:22:10;;;;;;;3.60;0.75;;;;;;;;;;4898047;29;20622;-71
2021/08/03 14:24:39;;;;;;;1.60;0.90;;;;;;;;;;4899054;29;20518;-71
2021/08/03 14:27:06;;;;;;;0.85;0.52;;;;;;;;;;4897185;29;20076;-72
2021/08/03 14:29:36;;;;;;;0.95;0.75;;;;;;;;;;4895225;29;20100;-66
2021/08/03 14:32:06;;;;;;;0.65;0.65;;;;;;;;;;4893645;29;20107;-68
2021/08/03 14:34:32;;;;;;;1.02;0.80;;;;;;;;;;4896175;29;20117;-71
2021/08/03 14:37:01;;;;;;;0.80;0.80;;;;;;;;;;4896268;29;20110;-70
2021/08/03 14:39:27;;;;;;;1.38;0.80;;;;;;;;;;4896238;29;20092;-71
2021/08/03 14:41:54;;;;;;;0.70;0.70;;;;;;;;;;4895972;29;20189;-71
2021/08/03 14:44:20;;;;;;;0.82;0.57;;;;;;;;;;4896374;29;20471;-70
2021/08/03 14:46:47;;;;;;;0.68;0.65;;;;;;;;;;4896084;29;20924;-70
2021/08/03 14:49:14;;;;;;;0.63;0.63;;;;;;;;;;4896103;29;20104;-69
2021/08/03 14:51:41;;;;;;;0.70;0.70;;;;;;;;;;4895818;29;20076;-70
2021/08/03 14:54:09;;;;;;;1.40;0.90;;;;;;;;;;4895941;29;20091;-70
2021/08/03 14:56:35;;;;;;;0.82;0.65;;;;;;;;;;4895697;29;20061;-72
2021/08/03 14:59:02;;;;;;;1.17;0.77;;;;;;;;;;4895485;29;20527;-72
2021/08/03 15:01:29;;;;;;;1.20;0.50;;;;;;;;;;4896012;29;20135;-72